sensor_id;sensor_type;location;lat;lon;timestamp;P1;durP1;ratioP1;P2;durP2;ratioP2
26953;SDS011;14508;50.924;11.600;2023-02-28T00:01:12;6.68;;;3.65;;
26953;SDS011;14508;50.924;11.600;2023-02-28T00:03:41;9.52;;;4.68;;
26953;SDS011;14508;50.924;11.600;2023-02-28T00:06:09;13.48;;;4.85;;
26953;SDS011;14508;50.924;11.600;2023-02-28T00:08:38;8.55;;;4.70;;
26953;SDS011;14508;50.924;11.600;2023-02-28T00:11:07;9.80;;;4.85;;
26953;SDS011;14508;50.924;11.600;2023-02-28T00:13:37;11.00;;;4.80;;
26953;SDS011;14508;50.924;11.600;2023-02-28T00:16:07;9.32;;;5.05;;
26953;SDS011;14508;50.924;11.600;2023-02-28T00:18:37;8.88;;;4.18;;
26953;SDS011;14508;50.924;11.600;2023-02-28T00:21:06;9.70;;;4.55;;
26953;SDS011;14508;50.924;11.600;2023-02-28T00:23:34;15.68;;;4.40;;
26953;SDS011;14508;50.924;11.600;2023-02-28T00:26:03;11.50;;;5.13;;
26953;SDS011;14508;50.924;11.600;2023-02-28T00:28:31;9.20;;;4.53;;
26953;SDS011;14508;50.924;11.600;2023-02-28T00:30:59;10.95;;;4.55;;
26953;SDS011;14508;50.924;11.600;2023-02-28T00:33:28;9.25;;;3.55;;
26953;SDS011;14508;50.924;11.600;2023-02-28T00:36:05;11.52;;;4.28;;
26953;SDS011;14508;50.924;11.600;2023-02-28T00:38:37;10.85;;;4.53;;
26953;SDS011;14508;50.924;11.600;2023-02-28T00:41:06;12.38;;;5.47;;
26953;SDS011;14508;50.924;11.600;2023-02-28T00:43:35;8.60;;;4.68;;
26953;SDS011;14508;50.924;11.600;2023-02-28T00:46:04;8.07;;;4.60;;
26953;SDS011;14508;50.924;11.600;2023-02-28T00:48:32;8.70;;;4.05;;
26953;SDS011;14508;50.924;11.600;2023-02-28T00:51:00;8.77;;;4.70;;
26953;SDS011;14508;50.924;11.600;2023-02-28T00:53:31;8.35;;;4.47;;
26953;SDS011;14508;50.924;11.600;2023-02-28T00:56:00;10.05;;;4.30;;
26953;SDS011;14508;50.924;11.600;2023-02-28T00:58:28;8.43;;;4.72;;
26953;SDS011;14508;50.924;11.600;2023-02-28T01:00:56;11.35;;;4.05;;
26953;SDS011;14508;50.924;11.600;2023-02-28T01:03:24;8.40;;;4.53;;
26953;SDS011;14508;50.924;11.600;2023-02-28T01:05:52;13.38;;;5.78;;
26953;SDS011;14508;50.924;11.600;2023-02-28T01:08:20;9.40;;;4.57;;
26953;SDS011;14508;50.924;11.600;2023-02-28T01:10:50;9.63;;;4.85;;
26953;SDS011;14508;50.924;11.600;2023-02-28T01:13:18;8.63;;;5.13;;
26953;SDS011;14508;50.924;11.600;2023-02-28T01:15:49;10.85;;;5.50;;
26953;SDS011;14508;50.924;11.600;2023-02-28T01:18:19;11.40;;;5.22;;
26953;SDS011;14508;50.924;11.600;2023-02-28T01:20:48;9.13;;;4.97;;
26953;SDS011;14508;50.924;11.600;2023-02-28T01:23:18;9.52;;;5.05;;
26953;SDS011;14508;50.924;11.600;2023-02-28T01:25:47;10.30;;;6.28;;
26953;SDS011;14508;50.924;11.600;2023-02-28T01:28:17;12.38;;;5.50;;
26953;SDS011;14508;50.924;11.600;2023-02-28T01:30:47;9.68;;;4.75;;
26953;SDS011;14508;50.924;11.600;2023-02-28T01:33:16;10.93;;;5.15;;
26953;SDS011;14508;50.924;11.600;2023-02-28T01:35:44;11.95;;;4.82;;
26953;SDS011;14508;50.924;11.600;2023-02-28T01:38:11;8.52;;;5.40;;
26953;SDS011;14508;50.924;11.600;2023-02-28T01:40:48;8.45;;;4.40;;
26953;SDS011;14508;50.924;11.600;2023-02-28T01:43:19;9.75;;;4.75;;
26953;SDS011;14508;50.924;11.600;2023-02-28T01:45:49;8.80;;;5.05;;
26953;SDS011;14508;50.924;11.600;2023-02-28T01:48:18;11.20;;;4.55;;
26953;SDS011;14508;50.924;11.600;2023-02-28T01:50:48;13.43;;;5.03;;
26953;SDS011;14508;50.924;11.600;2023-02-28T01:53:18;11.85;;;4.97;;
26953;SDS011;14508;50.924;11.600;2023-02-28T01:55:49;11.05;;;5.18;;
26953;SDS011;14508;50.924;11.600;2023-02-28T01:58:21;10.85;;;4.95;;
26953;SDS011;14508;50.924;11.600;2023-02-28T02:00:49;9.55;;;5.20;;
26953;SDS011;14508;50.924;11.600;2023-02-28T02:03:18;9.80;;;4.88;;
26953;SDS011;14508;50.924;11.600;2023-02-28T02:05:47;8.65;;;4.25;;
26953;SDS011;14508;50.924;11.600;2023-02-28T02:08:17;10.65;;;5.20;;
26953;SDS011;14508;50.924;11.600;2023-02-28T02:10:47;10.45;;;5.47;;
26953;SDS011;14508;50.924;11.600;2023-02-28T02:13:33;12.43;;;5.05;;
26953;SDS011;14508;50.924;11.600;2023-02-28T02:16:12;11.98;;;5.25;;
26953;SDS011;14508;50.924;11.600;2023-02-28T02:18:56;9.25;;;5.30;;
26953;SDS011;14508;50.924;11.600;2023-02-28T02:21:47;8.18;;;4.07;;
26953;SDS011;14508;50.924;11.600;2023-02-28T02:24:56;8.30;;;4.85;;
26953;SDS011;14508;50.924;11.600;2023-02-28T02:27:46;11.57;;;4.45;;
26953;SDS011;14508;50.924;11.600;2023-02-28T02:30:45;22.77;;;5.50;;
26953;SDS011;14508;50.924;11.600;2023-02-28T02:33:41;8.40;;;4.18;;
26953;SDS011;14508;50.924;11.600;2023-02-28T02:36:29;7.78;;;4.22;;
26953;SDS011;14508;50.924;11.600;2023-02-28T02:39:02;8.02;;;3.92;;
26953;SDS011;14508;50.924;11.600;2023-02-28T02:41:35;8.38;;;4.40;;
26953;SDS011;14508;50.924;11.600;2023-02-28T02:44:06;10.63;;;4.60;;
26953;SDS011;14508;50.924;11.600;2023-02-28T02:46:39;6.57;;;3.63;;
26953;SDS011;14508;50.924;11.600;2023-02-28T02:49:15;11.00;;;4.50;;
26953;SDS011;14508;50.924;11.600;2023-02-28T02:51:47;10.93;;;4.32;;
26953;SDS011;14508;50.924;11.600;2023-02-28T02:54:17;6.95;;;4.10;;
26953;SDS011;14508;50.924;11.600;2023-02-28T02:56:48;4.68;;;3.28;;
26953;SDS011;14508;50.924;11.600;2023-02-28T02:59:18;11.80;;;4.50;;
26953;SDS011;14508;50.924;11.600;2023-02-28T03:01:50;7.68;;;3.67;;
26953;SDS011;14508;50.924;11.600;2023-02-28T03:04:23;10.60;;;4.15;;
26953;SDS011;14508;50.924;11.600;2023-02-28T03:06:52;6.32;;;3.88;;
26953;SDS011;14508;50.924;11.600;2023-02-28T03:09:21;7.63;;;4.13;;
26953;SDS011;14508;50.924;11.600;2023-02-28T03:11:49;10.57;;;5.00;;
26953;SDS011;14508;50.924;11.600;2023-02-28T03:14:22;13.23;;;5.60;;
26953;SDS011;14508;50.924;11.600;2023-02-28T03:17:17;9.43;;;4.30;;
26953;SDS011;14508;50.924;11.600;2023-02-28T03:19:59;14.43;;;4.97;;
26953;SDS011;14508;50.924;11.600;2023-02-28T03:22:45;7.03;;;4.18;;
26953;SDS011;14508;50.924;11.600;2023-02-28T03:25:20;7.20;;;3.88;;
26953;SDS011;14508;50.924;11.600;2023-02-28T03:28:00;12.85;;;3.72;;
26953;SDS011;14508;50.924;11.600;2023-02-28T03:30:33;6.72;;;3.72;;
26953;SDS011;14508;50.924;11.600;2023-02-28T03:33:06;6.72;;;4.10;;
26953;SDS011;14508;50.924;11.600;2023-02-28T03:35:41;11.90;;;3.97;;
26953;SDS011;14508;50.924;11.600;2023-02-28T03:38:14;7.15;;;4.40;;
26953;SDS011;14508;50.924;11.600;2023-02-28T03:40:47;9.20;;;4.10;;
26953;SDS011;14508;50.924;11.600;2023-02-28T03:43:18;7.88;;;3.88;;
26953;SDS011;14508;50.924;11.600;2023-02-28T03:45:49;6.90;;;3.58;;
26953;SDS011;14508;50.924;11.600;2023-02-28T03:48:19;7.50;;;4.28;;
26953;SDS011;14508;50.924;11.600;2023-02-28T03:50:53;10.13;;;4.35;;
26953;SDS011;14508;50.924;11.600;2023-02-28T03:53:24;12.55;;;3.83;;
26953;SDS011;14508;50.924;11.600;2023-02-28T03:55:56;9.55;;;4.47;;
26953;SDS011;14508;50.924;11.600;2023-02-28T03:58:29;9.10;;;4.57;;
26953;SDS011;14508;50.924;11.600;2023-02-28T04:01:03;10.05;;;3.55;;
26953;SDS011;14508;50.924;11.600;2023-02-28T04:03:35;11.15;;;4.22;;
26953;SDS011;14508;50.924;11.600;2023-02-28T04:06:05;9.27;;;4.05;;
26953;SDS011;14508;50.924;11.600;2023-02-28T04:08:40;8.95;;;3.63;;
26953;SDS011;14508;50.924;11.600;2023-02-28T04:11:16;8.23;;;4.35;;
26953;SDS011;14508;50.924;11.600;2023-02-28T04:13:48;10.50;;;3.95;;
26953;SDS011;14508;50.924;11.600;2023-02-28T04:16:16;12.10;;;4.53;;
26953;SDS011;14508;50.924;11.600;2023-02-28T04:18:59;8.70;;;4.20;;
26953;SDS011;14508;50.924;11.600;2023-02-28T04:21:30;12.93;;;3.95;;
26953;SDS011;14508;50.924;11.600;2023-02-28T04:23:59;11.77;;;3.60;;
26953;SDS011;14508;50.924;11.600;2023-02-28T04:26:28;7.00;;;4.15;;
26953;SDS011;14508;50.924;11.600;2023-02-28T04:28:57;7.60;;;3.58;;
26953;SDS011;14508;50.924;11.600;2023-02-28T04:31:25;6.70;;;3.35;;
26953;SDS011;14508;50.924;11.600;2023-02-28T04:33:54;10.38;;;4.22;;
26953;SDS011;14508;50.924;11.600;2023-02-28T04:36:22;10.70;;;3.80;;
26953;SDS011;14508;50.924;11.600;2023-02-28T04:38:51;5.40;;;3.22;;
26953;SDS011;14508;50.924;11.600;2023-02-28T04:41:19;6.43;;;3.35;;
26953;SDS011;14508;50.924;11.600;2023-02-28T04:43:50;9.07;;;3.75;;
26953;SDS011;14508;50.924;11.600;2023-02-28T04:46:19;10.10;;;3.83;;
26953;SDS011;14508;50.924;11.600;2023-02-28T04:48:47;7.68;;;3.95;;
26953;SDS011;14508;50.924;11.600;2023-02-28T04:51:16;8.13;;;4.15;;
26953;SDS011;14508;50.924;11.600;2023-02-28T04:53:45;9.65;;;4.50;;
26953;SDS011;14508;50.924;11.600;2023-02-28T04:56:16;8.20;;;3.78;;
26953;SDS011;14508;50.924;11.600;2023-02-28T04:58:44;12.48;;;4.22;;
26953;SDS011;14508;50.924;11.600;2023-02-28T05:01:17;12.73;;;4.20;;
26953;SDS011;14508;50.924;11.600;2023-02-28T05:03:49;8.75;;;3.78;;
26953;SDS011;14508;50.924;11.600;2023-02-28T05:06:18;26.40;;;4.47;;
26953;SDS011;14508;50.924;11.600;2023-02-28T05:08:47;9.20;;;4.05;;
26953;SDS011;14508;50.924;11.600;2023-02-28T05:11:17;8.65;;;3.50;;
26953;SDS011;14508;50.924;11.600;2023-02-28T05:13:47;6.45;;;3.70;;
26953;SDS011;14508;50.924;11.600;2023-02-28T05:16:16;8.52;;;3.95;;
26953;SDS011;14508;50.924;11.600;2023-02-28T05:18:44;14.20;;;4.80;;
26953;SDS011;14508;50.924;11.600;2023-02-28T05:21:23;9.25;;;4.53;;
26953;SDS011;14508;50.924;11.600;2023-02-28T05:23:54;5.70;;;3.20;;
26953;SDS011;14508;50.924;11.600;2023-02-28T05:26:25;15.02;;;5.38;;
26953;SDS011;14508;50.924;11.600;2023-02-28T05:28:54;8.07;;;3.35;;
26953;SDS011;14508;50.924;11.600;2023-02-28T05:31:22;5.70;;;3.28;;
26953;SDS011;14508;50.924;11.600;2023-02-28T05:33:51;10.05;;;4.22;;
26953;SDS011;14508;50.924;11.600;2023-02-28T05:36:19;9.88;;;4.22;;
26953;SDS011;14508;50.924;11.600;2023-02-28T05:38:47;12.57;;;5.05;;
26953;SDS011;14508;50.924;11.600;2023-02-28T05:41:16;9.23;;;3.78;;
26953;SDS011;14508;50.924;11.600;2023-02-28T05:43:47;9.20;;;4.25;;
26953;SDS011;14508;50.924;11.600;2023-02-28T05:46:15;9.85;;;3.92;;
26953;SDS011;14508;50.924;11.600;2023-02-28T05:48:45;5.53;;;2.83;;
26953;SDS011;14508;50.924;11.600;2023-02-28T05:51:15;7.65;;;3.35;;
26953;SDS011;14508;50.924;11.600;2023-02-28T05:53:43;8.48;;;3.28;;
26953;SDS011;14508;50.924;11.600;2023-02-28T05:56:11;6.10;;;3.22;;
26953;SDS011;14508;50.924;11.600;2023-02-28T05:58:39;7.47;;;3.70;;
26953;SDS011;14508;50.924;11.600;2023-02-28T06:01:21;10.65;;;3.65;;
26953;SDS011;14508;50.924;11.600;2023-02-28T06:03:51;13.13;;;4.97;;
26953;SDS011;14508;50.924;11.600;2023-02-28T06:06:19;7.68;;;3.58;;
26953;SDS011;14508;50.924;11.600;2023-02-28T06:08:47;10.18;;;4.78;;
26953;SDS011;14508;50.924;11.600;2023-02-28T06:11:15;11.48;;;5.00;;
26953;SDS011;14508;50.924;11.600;2023-02-28T06:13:42;12.40;;;3.90;;
26953;SDS011;14508;50.924;11.600;2023-02-28T06:16:10;10.70;;;3.88;;
26953;SDS011;14508;50.924;11.600;2023-02-28T06:18:40;10.35;;;4.93;;
26953;SDS011;14508;50.924;11.600;2023-02-28T06:21:08;12.73;;;5.20;;
26953;SDS011;14508;50.924;11.600;2023-02-28T06:23:36;10.30;;;4.80;;
26953;SDS011;14508;50.924;11.600;2023-02-28T06:26:04;8.98;;;4.10;;
26953;SDS011;14508;50.924;11.600;2023-02-28T06:28:32;14.55;;;5.43;;
26953;SDS011;14508;50.924;11.600;2023-02-28T06:31:04;9.68;;;5.95;;
26953;SDS011;14508;50.924;11.600;2023-02-28T06:33:34;12.70;;;5.35;;
26953;SDS011;14508;50.924;11.600;2023-02-28T06:36:04;14.90;;;5.65;;
26953;SDS011;14508;50.924;11.600;2023-02-28T06:38:33;16.58;;;5.38;;
26953;SDS011;14508;50.924;11.600;2023-02-28T06:41:01;12.93;;;5.28;;
26953;SDS011;14508;50.924;11.600;2023-02-28T06:43:30;13.98;;;5.15;;
26953;SDS011;14508;50.924;11.600;2023-02-28T06:46:00;13.07;;;6.35;;
26953;SDS011;14508;50.924;11.600;2023-02-28T06:48:31;12.32;;;6.13;;
26953;SDS011;14508;50.924;11.600;2023-02-28T06:51:01;16.73;;;7.38;;
26953;SDS011;14508;50.924;11.600;2023-02-28T06:53:32;16.00;;;6.53;;
26953;SDS011;14508;50.924;11.600;2023-02-28T06:56:03;18.30;;;6.70;;
26953;SDS011;14508;50.924;11.600;2023-02-28T06:58:32;22.13;;;8.27;;
26953;SDS011;14508;50.924;11.600;2023-02-28T07:01:01;15.00;;;7.00;;
26953;SDS011;14508;50.924;11.600;2023-02-28T07:03:29;16.77;;;6.80;;
26953;SDS011;14508;50.924;11.600;2023-02-28T07:05:59;19.63;;;7.90;;
26953;SDS011;14508;50.924;11.600;2023-02-28T07:08:30;19.02;;;7.10;;
26953;SDS011;14508;50.924;11.600;2023-02-28T07:10:59;18.38;;;6.85;;
26953;SDS011;14508;50.924;11.600;2023-02-28T07:13:27;19.58;;;7.57;;
26953;SDS011;14508;50.924;11.600;2023-02-28T07:15:55;14.52;;;6.28;;
26953;SDS011;14508;50.924;11.600;2023-02-28T07:18:24;14.38;;;6.55;;
26953;SDS011;14508;50.924;11.600;2023-02-28T07:20:52;15.35;;;6.88;;
26953;SDS011;14508;50.924;11.600;2023-02-28T07:23:20;16.05;;;6.40;;
26953;SDS011;14508;50.924;11.600;2023-02-28T07:25:50;15.57;;;6.55;;
26953;SDS011;14508;50.924;11.600;2023-02-28T07:28:18;15.93;;;6.45;;
26953;SDS011;14508;50.924;11.600;2023-02-28T07:30:46;14.45;;;5.95;;
26953;SDS011;14508;50.924;11.600;2023-02-28T07:33:15;26.83;;;8.35;;
26953;SDS011;14508;50.924;11.600;2023-02-28T07:35:43;23.58;;;8.27;;
26953;SDS011;14508;50.924;11.600;2023-02-28T07:38:11;20.52;;;7.15;;
26953;SDS011;14508;50.924;11.600;2023-02-28T07:40:40;16.73;;;7.97;;
26953;SDS011;14508;50.924;11.600;2023-02-28T07:43:09;16.52;;;6.72;;
26953;SDS011;14508;50.924;11.600;2023-02-28T07:45:37;21.13;;;7.28;;
26953;SDS011;14508;50.924;11.600;2023-02-28T07:48:05;14.38;;;7.03;;
26953;SDS011;14508;50.924;11.600;2023-02-28T07:50:36;12.25;;;6.40;;
26953;SDS011;14508;50.924;11.600;2023-02-28T07:53:04;10.07;;;5.72;;
26953;SDS011;14508;50.924;11.600;2023-02-28T07:55:31;15.52;;;6.10;;
26953;SDS011;14508;50.924;11.600;2023-02-28T07:57:59;15.02;;;6.55;;
26953;SDS011;14508;50.924;11.600;2023-02-28T08:00:29;21.85;;;7.07;;
26953;SDS011;14508;50.924;11.600;2023-02-28T08:02:58;15.20;;;5.95;;
26953;SDS011;14508;50.924;11.600;2023-02-28T08:05:26;17.17;;;7.00;;
26953;SDS011;14508;50.924;11.600;2023-02-28T08:07:54;13.27;;;6.20;;
26953;SDS011;14508;50.924;11.600;2023-02-28T08:10:21;15.20;;;5.97;;
26953;SDS011;14508;50.924;11.600;2023-02-28T08:12:50;13.02;;;5.88;;
26953;SDS011;14508;50.924;11.600;2023-02-28T08:15:17;10.70;;;5.35;;
26953;SDS011;14508;50.924;11.600;2023-02-28T08:17:47;15.55;;;6.22;;
26953;SDS011;14508;50.924;11.600;2023-02-28T08:20:14;11.93;;;5.97;;
26953;SDS011;14508;50.924;11.600;2023-02-28T08:22:42;18.45;;;5.68;;
26953;SDS011;14508;50.924;11.600;2023-02-28T08:25:11;13.18;;;6.18;;
26953;SDS011;14508;50.924;11.600;2023-02-28T08:27:39;20.00;;;6.53;;
26953;SDS011;14508;50.924;11.600;2023-02-28T08:30:07;17.73;;;6.28;;
26953;SDS011;14508;50.924;11.600;2023-02-28T08:32:37;11.70;;;5.50;;
26953;SDS011;14508;50.924;11.600;2023-02-28T08:35:08;17.33;;;6.38;;
26953;SDS011;14508;50.924;11.600;2023-02-28T08:37:36;13.85;;;6.20;;
26953;SDS011;14508;50.924;11.600;2023-02-28T08:40:05;11.25;;;5.47;;
26953;SDS011;14508;50.924;11.600;2023-02-28T08:42:33;19.23;;;7.10;;
26953;SDS011;14508;50.924;11.600;2023-02-28T08:45:02;15.32;;;5.80;;
26953;SDS011;14508;50.924;11.600;2023-02-28T08:47:30;11.02;;;4.75;;
26953;SDS011;14508;50.924;11.600;2023-02-28T08:49:59;16.70;;;6.22;;
26953;SDS011;14508;50.924;11.600;2023-02-28T08:52:28;16.30;;;6.38;;
26953;SDS011;14508;50.924;11.600;2023-02-28T08:54:56;16.55;;;5.70;;
26953;SDS011;14508;50.924;11.600;2023-02-28T08:57:24;14.55;;;5.90;;
26953;SDS011;14508;50.924;11.600;2023-02-28T08:59:53;13.98;;;6.50;;
26953;SDS011;14508;50.924;11.600;2023-02-28T09:02:21;11.45;;;5.72;;
26953;SDS011;14508;50.924;11.600;2023-02-28T09:04:49;11.60;;;5.22;;
26953;SDS011;14508;50.924;11.600;2023-02-28T09:07:17;11.40;;;5.72;;
26953;SDS011;14508;50.924;11.600;2023-02-28T09:09:47;12.25;;;5.30;;
26953;SDS011;14508;50.924;11.600;2023-02-28T09:12:24;9.35;;;4.57;;
26953;SDS011;14508;50.924;11.600;2023-02-28T09:14:54;8.95;;;4.00;;
26953;SDS011;14508;50.924;11.600;2023-02-28T09:17:24;14.10;;;5.50;;
26953;SDS011;14508;50.924;11.600;2023-02-28T09:19:56;10.13;;;5.22;;
26953;SDS011;14508;50.924;11.600;2023-02-28T09:22:24;13.50;;;5.45;;
26953;SDS011;14508;50.924;11.600;2023-02-28T09:24:53;12.32;;;5.22;;
26953;SDS011;14508;50.924;11.600;2023-02-28T09:27:21;11.98;;;5.07;;
26953;SDS011;14508;50.924;11.600;2023-02-28T09:29:49;8.00;;;4.22;;
26953;SDS011;14508;50.924;11.600;2023-02-28T09:32:17;7.13;;;4.20;;
26953;SDS011;14508;50.924;11.600;2023-02-28T09:34:45;11.38;;;4.25;;
26953;SDS011;14508;50.924;11.600;2023-02-28T09:37:13;10.73;;;3.97;;
26953;SDS011;14508;50.924;11.600;2023-02-28T09:39:41;8.35;;;4.22;;
26953;SDS011;14508;50.924;11.600;2023-02-28T09:42:12;7.97;;;4.18;;
26953;SDS011;14508;50.924;11.600;2023-02-28T09:44:48;10.65;;;3.97;;
26953;SDS011;14508;50.924;11.600;2023-02-28T09:47:19;7.50;;;3.58;;
26953;SDS011;14508;50.924;11.600;2023-02-28T09:49:56;9.80;;;4.55;;
26953;SDS011;14508;50.924;11.600;2023-02-28T09:52:30;8.82;;;3.90;;
26953;SDS011;14508;50.924;11.600;2023-02-28T09:55:00;13.43;;;4.65;;
26953;SDS011;14508;50.924;11.600;2023-02-28T09:57:45;8.82;;;4.20;;
26953;SDS011;14508;50.924;11.600;2023-02-28T10:00:15;7.10;;;3.92;;
26953;SDS011;14508;50.924;11.600;2023-02-28T10:02:51;6.80;;;3.55;;
26953;SDS011;14508;50.924;11.600;2023-02-28T10:08:05;7.90;;;3.85;;
26953;SDS011;14508;50.924;11.600;2023-02-28T10:10:39;12.40;;;4.03;;
26953;SDS011;14508;50.924;11.600;2023-02-28T10:13:14;8.02;;;4.78;;
26953;SDS011;14508;50.924;11.600;2023-02-28T10:15:47;15.73;;;5.35;;
26953;SDS011;14508;50.924;11.600;2023-02-28T10:18:21;12.85;;;4.82;;
26953;SDS011;14508;50.924;11.600;2023-02-28T10:20:53;16.25;;;4.82;;
26953;SDS011;14508;50.924;11.600;2023-02-28T10:23:23;20.40;;;4.68;;
26953;SDS011;14508;50.924;11.600;2023-02-28T10:25:57;9.80;;;4.05;;
26953;SDS011;14508;50.924;11.600;2023-02-28T10:28:30;5.60;;;4.18;;
26953;SDS011;14508;50.924;11.600;2023-02-28T10:30:58;26.20;;;5.00;;
26953;SDS011;14508;50.924;11.600;2023-02-28T10:33:28;15.50;;;5.28;;
26953;SDS011;14508;50.924;11.600;2023-02-28T10:35:57;11.98;;;5.20;;
26953;SDS011;14508;50.924;11.600;2023-02-28T10:38:27;9.73;;;4.85;;
26953;SDS011;14508;50.924;11.600;2023-02-28T10:41:03;19.30;;;5.15;;
26953;SDS011;14508;50.924;11.600;2023-02-28T10:43:33;13.98;;;4.47;;
26953;SDS011;14508;50.924;11.600;2023-02-28T10:46:02;12.73;;;4.93;;
26953;SDS011;14508;50.924;11.600;2023-02-28T10:48:33;9.80;;;4.60;;
26953;SDS011;14508;50.924;11.600;2023-02-28T10:51:04;18.05;;;4.75;;
26953;SDS011;14508;50.924;11.600;2023-02-28T10:53:35;12.02;;;4.88;;
26953;SDS011;14508;50.924;11.600;2023-02-28T10:56:26;10.85;;;4.68;;
26953;SDS011;14508;50.924;11.600;2023-02-28T10:58:56;11.73;;;5.22;;
26953;SDS011;14508;50.924;11.600;2023-02-28T11:01:34;13.07;;;4.88;;
26953;SDS011;14508;50.924;11.600;2023-02-28T11:04:12;12.40;;;4.68;;
26953;SDS011;14508;50.924;11.600;2023-02-28T11:06:45;40.70;;;6.43;;
26953;SDS011;14508;50.924;11.600;2023-02-28T11:09:27;8.25;;;5.20;;
26953;SDS011;14508;50.924;11.600;2023-02-28T11:11:57;12.98;;;6.55;;
26953;SDS011;14508;50.924;11.600;2023-02-28T11:14:27;11.48;;;5.78;;
26953;SDS011;14508;50.924;11.600;2023-02-28T11:16:58;9.35;;;4.95;;
26953;SDS011;14508;50.924;11.600;2023-02-28T11:19:38;18.77;;;5.65;;
26953;SDS011;14508;50.924;11.600;2023-02-28T11:22:11;16.52;;;5.15;;
26953;SDS011;14508;50.924;11.600;2023-02-28T11:24:47;8.48;;;5.18;;
26953;SDS011;14508;50.924;11.600;2023-02-28T11:27:40;15.85;;;5.70;;
26953;SDS011;14508;50.924;11.600;2023-02-28T11:30:26;19.00;;;5.75;;
26953;SDS011;14508;50.924;11.600;2023-02-28T11:32:56;17.55;;;6.38;;
26953;SDS011;14508;50.924;11.600;2023-02-28T11:35:26;12.98;;;6.10;;
26953;SDS011;14508;50.924;11.600;2023-02-28T11:37:57;20.27;;;5.93;;
26953;SDS011;14508;50.924;11.600;2023-02-28T11:40:28;9.82;;;5.47;;
26953;SDS011;14508;50.924;11.600;2023-02-28T11:43:06;15.75;;;6.13;;
26953;SDS011;14508;50.924;11.600;2023-02-28T11:45:44;7.72;;;4.65;;
26953;SDS011;14508;50.924;11.600;2023-02-28T11:48:20;11.68;;;6.40;;
26953;SDS011;14508;50.924;11.600;2023-02-28T11:50:53;20.60;;;6.47;;
26953;SDS011;14508;50.924;11.600;2023-02-28T11:53:34;13.77;;;5.55;;
26953;SDS011;14508;50.924;11.600;2023-02-28T11:56:31;12.68;;;5.38;;
26953;SDS011;14508;50.924;11.600;2023-02-28T11:59:08;16.20;;;5.75;;
26953;SDS011;14508;50.924;11.600;2023-02-28T12:02:03;11.85;;;5.68;;
26953;SDS011;14508;50.924;11.600;2023-02-28T12:04:42;14.45;;;6.47;;
26953;SDS011;14508;50.924;11.600;2023-02-28T12:07:24;11.45;;;5.80;;
26953;SDS011;14508;50.924;11.600;2023-02-28T12:10:04;10.48;;;5.35;;
26953;SDS011;14508;50.924;11.600;2023-02-28T12:12:39;18.33;;;6.15;;
26953;SDS011;14508;50.924;11.600;2023-02-28T12:18:19;12.32;;;6.18;;
26953;SDS011;14508;50.924;11.600;2023-02-28T12:21:04;15.43;;;6.82;;
26953;SDS011;14508;50.924;11.600;2023-02-28T12:23:43;9.13;;;5.47;;
26953;SDS011;14508;50.924;11.600;2023-02-28T12:26:31;15.30;;;6.30;;
26953;SDS011;14508;50.924;11.600;2023-02-28T12:29:08;15.70;;;7.95;;
26953;SDS011;14508;50.924;11.600;2023-02-28T12:31:41;12.85;;;5.90;;
26953;SDS011;14508;50.924;11.600;2023-02-28T12:34:18;18.13;;;6.75;;
26953;SDS011;14508;50.924;11.600;2023-02-28T12:36:49;10.60;;;6.10;;
26953;SDS011;14508;50.924;11.600;2023-02-28T12:39:23;11.57;;;6.38;;
26953;SDS011;14508;50.924;11.600;2023-02-28T12:41:54;11.68;;;6.35;;
26953;SDS011;14508;50.924;11.600;2023-02-28T12:44:26;12.40;;;7.28;;
26953;SDS011;14508;50.924;11.600;2023-02-28T12:46:58;14.50;;;7.22;;
26953;SDS011;14508;50.924;11.600;2023-02-28T12:49:33;11.68;;;6.32;;
26953;SDS011;14508;50.924;11.600;2023-02-28T12:52:04;12.90;;;6.07;;
26953;SDS011;14508;50.924;11.600;2023-02-28T12:54:38;12.52;;;6.20;;
26953;SDS011;14508;50.924;11.600;2023-02-28T12:57:15;14.25;;;6.60;;
26953;SDS011;14508;50.924;11.600;2023-02-28T12:59:51;13.18;;;6.15;;
26953;SDS011;14508;50.924;11.600;2023-02-28T13:02:30;12.05;;;6.60;;
26953;SDS011;14508;50.924;11.600;2023-02-28T13:05:30;16.67;;;6.78;;
26953;SDS011;14508;50.924;11.600;2023-02-28T13:11:22;17.55;;;7.07;;
26953;SDS011;14508;50.924;11.600;2023-02-28T13:13:56;20.67;;;7.18;;
26953;SDS011;14508;50.924;11.600;2023-02-28T13:16:26;15.98;;;7.40;;
26953;SDS011;14508;50.924;11.600;2023-02-28T13:18:57;16.77;;;7.47;;
26953;SDS011;14508;50.924;11.600;2023-02-28T13:21:43;17.13;;;7.40;;
26953;SDS011;14508;50.924;11.600;2023-02-28T13:24:11;16.60;;;6.35;;
26953;SDS011;14508;50.924;11.600;2023-02-28T13:30:00;13.88;;;7.75;;
26953;SDS011;14508;50.924;11.600;2023-02-28T13:32:35;23.15;;;7.72;;
26953;SDS011;14508;50.924;11.600;2023-02-28T13:38:12;11.73;;;6.90;;
26953;SDS011;14508;50.924;11.600;2023-02-28T13:44:07;19.23;;;6.70;;
26953;SDS011;14508;50.924;11.600;2023-02-28T13:46:37;11.98;;;6.93;;
26953;SDS011;14508;50.924;11.600;2023-02-28T13:49:42;17.10;;;6.90;;
26953;SDS011;14508;50.924;11.600;2023-02-28T13:52:12;15.90;;;7.47;;
26953;SDS011;14508;50.924;11.600;2023-02-28T13:54:52;16.15;;;7.35;;
26953;SDS011;14508;50.924;11.600;2023-02-28T13:57:53;16.70;;;6.38;;
26953;SDS011;14508;50.924;11.600;2023-02-28T14:00:39;13.80;;;6.93;;
26953;SDS011;14508;50.924;11.600;2023-02-28T14:03:23;21.60;;;7.25;;
26953;SDS011;14508;50.924;11.600;2023-02-28T14:06:10;14.15;;;6.68;;
26953;SDS011;14508;50.924;11.600;2023-02-28T14:08:52;14.82;;;7.28;;
26953;SDS011;14508;50.924;11.600;2023-02-28T14:11:25;14.23;;;6.30;;
26953;SDS011;14508;50.924;11.600;2023-02-28T14:13:57;18.77;;;7.32;;
26953;SDS011;14508;50.924;11.600;2023-02-28T14:16:25;12.88;;;7.13;;
26953;SDS011;14508;50.924;11.600;2023-02-28T14:18:57;14.15;;;6.88;;
26953;SDS011;14508;50.924;11.600;2023-02-28T14:21:30;13.00;;;7.47;;
26953;SDS011;14508;50.924;11.600;2023-02-28T14:24:03;10.20;;;6.93;;
26953;SDS011;14508;50.924;11.600;2023-02-28T14:26:55;16.27;;;7.70;;
26953;SDS011;14508;50.924;11.600;2023-02-28T14:29:59;13.95;;;6.90;;
26953;SDS011;14508;50.924;11.600;2023-02-28T14:32:50;15.60;;;7.47;;
26953;SDS011;14508;50.924;11.600;2023-02-28T14:35:35;16.27;;;7.68;;
26953;SDS011;14508;50.924;11.600;2023-02-28T14:38:13;11.05;;;6.22;;
26953;SDS011;14508;50.924;11.600;2023-02-28T14:40:49;25.27;;;7.78;;
26953;SDS011;14508;50.924;11.600;2023-02-28T14:43:21;14.10;;;7.20;;
26953;SDS011;14508;50.924;11.600;2023-02-28T14:45:51;11.32;;;6.80;;
26953;SDS011;14508;50.924;11.600;2023-02-28T14:48:21;16.75;;;7.45;;
26953;SDS011;14508;50.924;11.600;2023-02-28T14:50:54;15.38;;;7.25;;
26953;SDS011;14508;50.924;11.600;2023-02-28T14:53:25;18.00;;;7.63;;
26953;SDS011;14508;50.924;11.600;2023-02-28T14:55:55;14.50;;;7.70;;
26953;SDS011;14508;50.924;11.600;2023-02-28T14:58:25;16.08;;;7.03;;
26953;SDS011;14508;50.924;11.600;2023-02-28T15:00:55;16.17;;;7.13;;
26953;SDS011;14508;50.924;11.600;2023-02-28T15:03:29;14.80;;;7.32;;
26953;SDS011;14508;50.924;11.600;2023-02-28T15:05:59;23.67;;;8.77;;
26953;SDS011;14508;50.924;11.600;2023-02-28T15:08:29;26.77;;;8.60;;
26953;SDS011;14508;50.924;11.600;2023-02-28T15:11:01;14.68;;;7.72;;
26953;SDS011;14508;50.924;11.600;2023-02-28T15:13:35;20.27;;;8.93;;
26953;SDS011;14508;50.924;11.600;2023-02-28T15:16:05;14.48;;;7.07;;